createdAt,value
2019-02-20T00:02:06.174Z,143.40
2019-02-20T00:04:48.690Z,152.20
2019-02-20T00:07:31.233Z,139.23
2019-02-20T00:10:21.448Z,136.07
2019-02-20T00:13:05.053Z,132.73
2019-02-20T00:15:45.659Z,132.27
2019-02-20T00:18:31.553Z,137.27
2019-02-20T00:21:14.457Z,145.03
2019-02-20T00:23:59.213Z,130.27
2019-02-20T00:26:45.276Z,135.93
2019-02-20T00:29:30.230Z,138.43
2019-02-20T00:32:19.562Z,149.33
2019-02-20T00:35:01.027Z,145.67
2019-02-20T00:37:44.940Z,144.63
2019-02-20T00:40:30.922Z,148.77
2019-02-20T00:43:19.752Z,158.80
2019-02-20T00:46:26.302Z,144.00
2019-02-20T00:49:35.394Z,135.10
2019-02-20T00:52:31.394Z,135.90
2019-02-20T00:55:10.388Z,137.47
2019-02-20T00:57:50.534Z,137.80
2019-02-20T01:00:36.300Z,131.47
2019-02-20T01:03:19.743Z,140.97
2019-02-20T01:06:01.006Z,135.30
2019-02-20T01:08:44.033Z,142.77
2019-02-20T01:11:30.308Z,138.03
2019-02-20T01:14:15.926Z,146.43
2019-02-20T01:16:59.367Z,133.67
2019-02-20T01:19:46.731Z,136.53
2019-02-20T01:22:28.775Z,135.00
2019-02-20T01:25:12.350Z,136.80
2019-02-20T01:27:55.180Z,135.00
2019-02-20T01:30:40.653Z,130.67
2019-02-20T01:33:23.607Z,128.37
2019-02-20T01:36:07.510Z,143.57
2019-02-20T01:38:51.756Z,144.70
2019-02-20T01:41:32.222Z,132.60
2019-02-20T01:44:12.682Z,141.67
2019-02-20T01:46:57.472Z,135.77
2019-02-20T01:49:44.193Z,135.77
2019-02-20T01:52:28.298Z,129.87
2019-02-20T01:55:16.451Z,135.17
2019-02-20T01:58:03.402Z,131.67
2019-02-20T02:00:43.173Z,134.50
2019-02-20T02:03:31.713Z,130.60
2019-02-20T02:06:14.314Z,119.57
2019-02-20T02:08:55.280Z,122.90
2019-02-20T02:11:39.685Z,120.60
2019-02-20T02:14:19.175Z,120.13
2019-02-20T02:17:05.189Z,118.67
2019-02-20T02:19:49.030Z,118.20
2019-02-20T02:22:33.828Z,107.73
2019-02-20T02:25:17.296Z,140.33
2019-02-20T02:27:55.843Z,125.77
2019-02-20T02:30:46.265Z,118.13
2019-02-20T02:33:33.286Z,109.20
2019-02-20T02:36:13.872Z,112.80
2019-02-20T02:39:03.204Z,101.07
2019-02-20T02:41:49.304Z,106.27
2019-02-20T02:44:34.399Z,114.10
2019-02-20T02:47:16.337Z,108.60
2019-02-20T02:50:03.293Z,115.80
2019-02-20T02:52:50.177Z,104.07
2019-02-20T02:55:35.697Z,108.13
2019-02-20T02:58:16.012Z,109.07
2019-02-20T03:01:03.024Z,139.93
2019-02-20T03:03:48.785Z,134.70
2019-02-20T03:06:35.902Z,129.63
2019-02-20T03:09:21.606Z,115.93
2019-02-20T03:12:01.962Z,122.90
2019-02-20T03:14:47.808Z,117.03
2019-02-20T03:17:29.923Z,109.80
2019-02-20T03:20:14.320Z,140.97
2019-02-20T03:23:02.011Z,168.10
2019-02-20T03:25:40.073Z,141.53
2019-02-20T03:28:23.024Z,121.80
2019-02-20T03:31:04.503Z,116.97
2019-02-20T03:33:48.839Z,106.50
2019-02-20T03:36:34.569Z,105.70
2019-02-20T03:39:21.023Z,99.10
2019-02-20T03:42:02.513Z,109.40
2019-02-20T03:44:43.303Z,104.97
2019-02-20T03:47:29.192Z,111.40
2019-02-20T03:50:13.805Z,125.47
2019-02-20T03:52:59.926Z,124.17
2019-02-20T03:55:44.234Z,110.87
2019-02-20T03:58:28.845Z,209.00
2019-02-20T04:01:12.965Z,257.23
2019-02-20T04:03:55.666Z,195.60
2019-02-20T04:06:36.740Z,132.57
2019-02-20T04:09:21.728Z,122.50
2019-02-20T04:12:04.291Z,125.80
2019-02-20T04:14:45.064Z,116.97
2019-02-20T04:17:32.655Z,103.43
2019-02-20T04:20:35.277Z,102.07
2019-02-20T04:23:23.518Z,103.03
2019-02-20T04:26:11.019Z,97.33
2019-02-20T04:28:57.578Z,90.73
2019-02-20T04:31:39.646Z,99.57
2019-02-20T04:34:35.260Z,103.50
2019-02-20T04:37:21.704Z,160.90
2019-02-20T04:40:06.708Z,158.30
2019-02-20T04:42:46.996Z,114.20
2019-02-20T04:45:30.551Z,127.10
2019-02-20T04:48:12.767Z,133.60
2019-02-20T04:50:58.010Z,113.40
2019-02-20T04:53:42.928Z,121.57
2019-02-20T04:56:25.445Z,107.37
2019-02-20T04:59:09.725Z,105.17
2019-02-20T05:01:52.511Z,106.37
2019-02-20T05:04:33.734Z,98.67
2019-02-20T05:07:19.608Z,96.00
2019-02-20T05:10:03.574Z,93.37
2019-02-20T05:12:44.999Z,99.43
2019-02-20T05:15:30.091Z,98.47
2019-02-20T05:18:14.096Z,98.43
2019-02-20T05:21:03.138Z,105.57
2019-02-20T05:23:43.500Z,98.23
2019-02-20T05:26:34.378Z,103.37
2019-02-20T05:29:20.752Z,109.17
2019-02-20T05:32:08.750Z,118.27
2019-02-20T05:34:51.327Z,109.67
2019-02-20T05:37:33.910Z,105.17
2019-02-20T05:40:13.477Z,106.77
2019-02-20T05:43:00.705Z,112.23
2019-02-20T05:45:46.752Z,113.83
2019-02-20T05:48:29.264Z,117.17
2019-02-20T05:51:10.867Z,131.53
2019-02-20T05:53:53.659Z,116.27
2019-02-20T05:56:33.893Z,119.23
2019-02-20T05:59:17.783Z,112.57
2019-02-20T06:02:00.454Z,115.10
2019-02-20T06:04:41.481Z,110.00
2019-02-20T06:07:25.853Z,124.67
2019-02-20T06:10:07.939Z,109.53
2019-02-20T06:12:51.124Z,114.07
2019-02-20T06:15:38.835Z,112.60
2019-02-20T06:18:22.218Z,130.43
2019-02-20T06:21:17.467Z,120.17
2019-02-20T06:24:03.974Z,120.33
2019-02-20T06:26:50.961Z,132.23
2019-02-20T06:29:42.563Z,128.53
2019-02-20T06:32:26.753Z,127.93
2019-02-20T06:35:08.690Z,125.83
2019-02-20T06:37:53.390Z,123.10
2019-02-20T06:40:38.726Z,126.73
2019-02-20T06:43:21.965Z,126.77
2019-02-20T06:46:04.093Z,140.47
2019-02-20T06:48:47.470Z,133.87
2019-02-20T06:51:32.303Z,124.17
2019-02-20T06:54:16.353Z,126.67
2019-02-20T06:57:07.315Z,120.40
2019-02-20T06:59:54.494Z,114.83
2019-02-20T07:02:46.640Z,129.63
2019-02-20T07:05:57.479Z,124.13
2019-02-20T07:09:27.055Z,121.97
2019-02-20T07:12:35.373Z,134.63
2019-02-20T07:15:49.994Z,131.03
2019-02-20T07:18:44.084Z,115.80
2019-02-20T07:22:09.603Z,119.77
2019-02-20T07:25:06.214Z,112.17
2019-02-20T07:28:30.833Z,110.83
2019-02-20T07:31:14.810Z,112.53
2019-02-20T07:34:05.248Z,116.40
2019-02-20T07:36:45.589Z,120.37
2019-02-20T07:39:28.454Z,118.43
2019-02-20T07:42:10.577Z,112.67
2019-02-20T07:44:54.200Z,108.07
2019-02-20T07:47:37.307Z,105.90
2019-02-20T07:50:18.500Z,108.07
2019-02-20T07:53:00.070Z,106.40
2019-02-20T07:55:46.850Z,106.73
2019-02-20T07:58:32.652Z,96.30
2019-02-20T08:01:18.857Z,104.13
2019-02-20T08:04:11.477Z,100.17
2019-02-20T08:06:52.251Z,89.47
2019-02-20T08:09:35.013Z,86.23
2019-02-20T08:12:19.204Z,94.90
2019-02-20T08:15:00.705Z,91.77
2019-02-20T08:17:48.654Z,90.60
2019-02-20T08:20:37.520Z,82.50
2019-02-20T08:23:18.935Z,89.03
2019-02-20T08:26:00.954Z,87.97
2019-02-20T08:28:43.060Z,80.43
2019-02-20T08:31:29.910Z,79.40
2019-02-20T08:34:18.809Z,87.53
2019-02-20T08:37:03.596Z,89.40
2019-02-20T08:39:44.449Z,82.33
2019-02-20T08:42:29.357Z,83.33
2019-02-20T08:45:10.737Z,70.27
2019-02-20T08:47:55.338Z,72.20
2019-02-20T08:50:33.240Z,76.97
2019-02-20T08:53:17.812Z,79.60
2019-02-20T08:56:06.867Z,66.07
2019-02-20T08:58:57.591Z,70.57
2019-02-20T09:01:38.732Z,68.13
2019-02-20T09:04:21.957Z,61.00
2019-02-20T09:07:07.191Z,60.90
2019-02-20T09:09:49.557Z,62.97
2019-02-20T09:12:31.560Z,65.57
2019-02-20T09:15:19.997Z,62.80
2019-02-20T09:18:03.167Z,64.33
2019-02-20T09:20:42.022Z,60.57
2019-02-20T09:23:26.089Z,59.97
2019-02-20T09:26:12.391Z,62.07
2019-02-20T09:28:52.677Z,55.90
2019-02-20T09:31:40.721Z,57.90
2019-02-20T09:34:26.235Z,58.73
2019-02-20T09:37:06.147Z,58.23
2019-02-20T09:39:53.290Z,57.20
2019-02-20T09:42:37.221Z,62.73
2019-02-20T09:45:19.557Z,63.90
2019-02-20T09:48:05.172Z,62.43
2019-02-20T09:50:52.945Z,55.47
2019-02-20T09:53:42.815Z,55.57
2019-02-20T09:56:22.701Z,56.23
2019-02-20T09:59:11.648Z,56.50
2019-02-20T10:01:54.086Z,58.70
2019-02-20T10:04:35.582Z,81.30
2019-02-20T10:07:21.961Z,89.37
2019-02-20T10:10:06.058Z,79.17
2019-02-20T10:12:52.971Z,77.23
2019-02-20T10:15:38.842Z,64.13
2019-02-20T10:18:21.222Z,82.53
2019-02-20T10:21:04.884Z,67.13
2019-02-20T10:23:50.782Z,75.43
2019-02-20T10:26:33.385Z,87.43
2019-02-20T10:29:15.992Z,72.23
2019-02-20T10:31:59.157Z,74.77
2019-02-20T10:34:38.883Z,73.20
2019-02-20T10:37:39.955Z,60.73
2019-02-20T10:40:22.919Z,81.07
2019-02-20T10:43:07.479Z,77.43
2019-02-20T10:45:49.948Z,72.00
2019-02-20T10:48:33.491Z,77.13
2019-02-20T10:51:18.965Z,116.47
2019-02-20T10:54:06.175Z,93.67
2019-02-20T10:56:52.851Z,95.13
2019-02-20T10:59:41.333Z,102.93
2019-02-20T11:02:29.097Z,89.00
2019-02-20T11:05:15.724Z,93.17
2019-02-20T11:08:00.878Z,116.93
2019-02-20T11:10:48.082Z,107.87
2019-02-20T11:13:39.258Z,110.87
2019-02-20T11:16:19.308Z,101.20
2019-02-20T11:19:01.468Z,81.40
2019-02-20T11:21:44.074Z,78.47
2019-02-20T11:24:26.903Z,101.23
2019-02-20T11:27:13.475Z,103.07
2019-02-20T11:30:03.865Z,88.80
2019-02-20T11:32:46.888Z,87.50
2019-02-20T11:35:40.142Z,92.60
2019-02-20T11:38:32.171Z,88.53
2019-02-20T11:41:17.179Z,107.30
2019-02-20T11:43:59.122Z,109.30
2019-02-20T11:46:44.699Z,130.27
2019-02-20T11:49:33.975Z,83.93
2019-02-20T11:52:19.251Z,77.70
2019-02-20T11:55:05.594Z,81.37
2019-02-20T11:57:50.789Z,71.63
2019-02-20T12:00:35.187Z,73.23
2019-02-20T12:03:23.902Z,76.77
2019-02-20T12:06:07.426Z,96.17
2019-02-20T12:08:48.373Z,93.87
2019-02-20T12:11:33.026Z,75.13
2019-02-20T12:14:18.002Z,91.00
2019-02-20T12:17:05.839Z,90.50
2019-02-20T12:19:55.241Z,98.50
2019-02-20T12:22:45.293Z,89.20
2019-02-20T12:25:38.545Z,144.57
2019-02-20T12:28:22.459Z,130.73
2019-02-20T12:31:05.471Z,92.33
2019-02-20T12:33:52.250Z,76.00
2019-02-20T12:36:54.047Z,72.83
2019-02-20T12:39:38.620Z,67.30
2019-02-20T12:42:25.208Z,65.33
2019-02-20T12:45:08.587Z,77.97
2019-02-20T12:47:56.066Z,69.37
2019-02-20T12:50:45.713Z,83.13
2019-02-20T12:53:37.934Z,105.67
2019-02-20T12:56:23.145Z,87.50
2019-02-20T12:59:07.974Z,77.97
2019-02-20T13:01:52.969Z,94.67
2019-02-20T13:04:48.289Z,89.83
2019-02-20T13:07:36.375Z,83.07
2019-02-20T13:10:19.606Z,81.37
2019-02-20T13:13:09.337Z,83.50
2019-02-20T13:16:21.869Z,83.40
2019-02-20T13:19:12.628Z,79.00
2019-02-20T13:22:05.928Z,78.70
2019-02-20T13:25:04.019Z,96.07
2019-02-20T13:27:55.059Z,134.60
2019-02-20T13:30:38.753Z,119.43
2019-02-20T13:33:30.874Z,119.33
2019-02-20T13:36:20.697Z,121.47
2019-02-20T13:39:08.622Z,94.47
2019-02-20T13:42:06.451Z,84.87
2019-02-20T13:44:55.377Z,81.73
2019-02-20T13:47:49.190Z,80.10
2019-02-20T13:50:46.340Z,92.50
2019-02-20T13:53:49.299Z,90.67
2019-02-20T13:56:40.468Z,80.40
2019-02-20T13:59:29.883Z,86.30
2019-02-20T14:02:28.367Z,90.87
2019-02-20T14:05:22.570Z,72.03
2019-02-20T14:08:21.322Z,80.77
2019-02-20T14:11:15.094Z,96.00
2019-02-20T14:13:59.119Z,97.53
2019-02-20T14:16:49.186Z,84.47
2019-02-20T14:19:43.999Z,91.60
2019-02-20T14:22:32.747Z,96.53
2019-02-20T14:25:16.901Z,90.10
2019-02-20T14:28:17.556Z,90.00
2019-02-20T14:31:23.199Z,86.07
2019-02-20T14:34:11.693Z,89.23
2019-02-20T14:37:30.215Z,92.77
2019-02-20T14:40:18.846Z,99.47
2019-02-20T14:43:05.595Z,79.90
2019-02-20T14:45:58.483Z,130.93
2019-02-20T14:48:39.957Z,94.50
2019-02-20T14:51:38.742Z,89.90
2019-02-20T14:54:34.579Z,83.13
2019-02-20T14:57:21.296Z,86.03
2019-02-20T15:00:03.223Z,83.90
2019-02-20T15:02:54.123Z,87.57
2019-02-20T15:05:57.034Z,86.67
2019-02-20T15:08:46.808Z,79.53
2019-02-20T15:11:46.939Z,210.93
2019-02-20T15:14:38.819Z,111.13
2019-02-20T15:17:31.640Z,93.67
2019-02-20T15:20:13.340Z,81.87
2019-02-20T15:23:06.378Z,93.47
2019-02-20T15:26:16.687Z,96.13
2019-02-20T15:28:59.118Z,91.07
2019-02-20T15:31:50.589Z,83.70
2019-02-20T15:34:38.270Z,94.27
2019-02-20T15:37:44.875Z,90.77
2019-02-20T15:40:31.039Z,86.20
2019-02-20T15:43:16.869Z,85.60
2019-02-20T15:46:14.004Z,89.33
2019-02-20T15:49:31.565Z,83.17
2019-02-20T15:52:19.422Z,91.43
2019-02-20T15:55:07.689Z,92.87
2019-02-20T15:57:50.010Z,96.13
2019-02-20T16:00:52.094Z,83.30
2019-02-20T16:03:39.186Z,95.47
2019-02-20T16:06:25.740Z,91.57
2019-02-20T16:09:10.272Z,94.60
2019-02-20T16:12:02.304Z,94.37
2019-02-20T16:15:07.404Z,92.30
2019-02-20T16:17:52.932Z,93.50
2019-02-20T16:20:41.760Z,89.70
2019-02-20T16:23:28.657Z,111.17
2019-02-20T16:26:15.935Z,101.97
2019-02-20T16:29:07.669Z,100.77
2019-02-20T16:31:48.743Z,90.00
2019-02-20T16:34:50.365Z,95.87
2019-02-20T16:37:40.086Z,95.97
2019-02-20T16:40:29.821Z,98.73
2019-02-20T16:43:14.306Z,106.10
2019-02-20T16:45:58.237Z,105.23
2019-02-20T16:48:48.385Z,106.17
2019-02-20T16:51:36.469Z,100.43
2019-02-20T16:54:17.519Z,98.00
2019-02-20T16:57:02.259Z,100.90
2019-02-20T16:59:50.358Z,94.87
2019-02-20T17:02:42.802Z,99.23
2019-02-20T17:05:27.298Z,105.17
2019-02-20T17:08:14.974Z,99.67
2019-02-20T17:11:01.721Z,100.27
2019-02-20T17:13:47.484Z,96.23
2019-02-20T17:16:32.673Z,95.73
2019-02-20T17:19:21.433Z,142.57
2019-02-20T17:22:06.694Z,145.23
2019-02-20T17:24:58.158Z,123.53
2019-02-20T17:27:45.775Z,111.77
2019-02-20T17:30:25.727Z,110.03
2019-02-20T17:33:12.537Z,99.10
2019-02-20T17:35:54.910Z,102.13
2019-02-20T17:38:47.746Z,104.03
2019-02-20T17:41:39.768Z,102.13
2019-02-20T17:44:22.270Z,106.47
2019-02-20T17:47:07.586Z,97.47
2019-02-20T17:49:53.120Z,105.10
2019-02-20T17:52:41.976Z,93.07
2019-02-20T17:55:24.749Z,100.83
2019-02-20T17:58:15.381Z,93.97
2019-02-20T18:01:04.529Z,107.77
2019-02-20T18:03:50.293Z,130.13
2019-02-20T18:06:35.882Z,132.90
2019-02-20T18:09:18.048Z,113.03
2019-02-20T18:12:00.064Z,111.30
2019-02-20T18:14:41.245Z,94.03
2019-02-20T18:17:32.236Z,97.53
2019-02-20T18:20:13.654Z,99.40
2019-02-20T18:23:03.793Z,97.43
2019-02-20T18:25:51.566Z,96.17
2019-02-20T18:28:34.997Z,92.13
2019-02-20T18:31:20.069Z,95.43
2019-02-20T18:34:02.317Z,100.73
2019-02-20T18:36:47.866Z,95.57
2019-02-20T18:39:28.700Z,100.17
2019-02-20T18:42:25.270Z,103.10
2019-02-20T18:45:06.332Z,96.03
2019-02-20T18:47:50.298Z,101.60
2019-02-20T18:50:34.819Z,99.77
2019-02-20T18:53:16.754Z,93.40
2019-02-20T18:55:59.017Z,98.87
2019-02-20T18:58:42.302Z,102.83
2019-02-20T19:01:24.300Z,96.90
2019-02-20T19:04:21.253Z,97.93
2019-02-20T19:07:15.916Z,101.93
2019-02-20T19:10:01.011Z,102.77
2019-02-20T19:13:07.562Z,97.73
2019-02-20T19:16:44.919Z,101.13
2019-02-20T19:20:02.130Z,105.80
2019-02-20T19:23:07.558Z,103.70
2019-02-20T19:26:28.885Z,101.67
2019-02-20T19:29:48.474Z,109.63
2019-02-20T19:33:15.681Z,111.40
2019-02-20T19:36:45.030Z,110.80
2019-02-20T19:39:47.733Z,123.93
2019-02-20T19:42:54.155Z,124.93
2019-02-20T19:46:28.368Z,109.00
2019-02-20T19:49:18.953Z,116.23
2019-02-20T19:52:29.120Z,122.73
2019-02-20T19:55:41.025Z,117.33
2019-02-20T19:59:08.430Z,109.93
2019-02-20T20:02:28.203Z,106.33
2019-02-20T20:05:54.147Z,107.20
2019-02-20T20:08:54.433Z,109.53
2019-02-20T20:12:18.717Z,107.17
2019-02-20T20:15:39.085Z,111.70
2019-02-20T20:18:58.110Z,108.83
2019-02-20T20:22:09.743Z,106.17
2019-02-20T20:25:10.000Z,111.87
2019-02-20T20:28:32.763Z,106.23
2019-02-20T20:31:43.901Z,108.50
2019-02-20T20:34:56.468Z,121.10
2019-02-20T20:37:51.934Z,114.03
2019-02-20T20:41:11.033Z,109.60
2019-02-20T20:44:39.722Z,116.30
2019-02-20T20:47:28.864Z,109.37
2019-02-20T20:50:18.665Z,122.90
2019-02-20T20:53:28.223Z,110.43
2019-02-20T20:56:57.787Z,105.00
2019-02-20T20:59:59.142Z,111.90
2019-02-20T21:03:01.800Z,109.33
2019-02-20T21:06:06.464Z,107.40
2019-02-20T21:09:02.768Z,106.87
2019-02-20T21:12:10.258Z,115.77
2019-02-20T21:15:40.081Z,100.07
2019-02-20T21:19:06.290Z,111.20
2019-02-20T21:22:00.196Z,107.97
2019-02-20T21:25:10.265Z,123.83
2019-02-20T21:28:22.689Z,119.70
2019-02-20T21:31:49.885Z,101.77
2019-02-20T21:35:07.114Z,116.23
2019-02-20T21:38:26.613Z,120.50
2019-02-20T21:41:35.471Z,120.47
2019-02-20T21:44:56.767Z,111.13
2019-02-20T21:48:13.079Z,113.53
2019-02-20T21:51:15.210Z,118.83
2019-02-20T21:54:12.139Z,112.07
2019-02-20T21:57:12.465Z,110.80
2019-02-20T22:00:32.679Z,118.93
2019-02-20T22:03:40.444Z,117.93
2019-02-20T22:06:52.805Z,122.33
2019-02-20T22:10:10.719Z,120.23
2019-02-20T22:13:26.325Z,124.43
2019-02-20T22:16:44.220Z,129.30
2019-02-20T22:20:16.117Z,125.77
2019-02-20T22:23:27.582Z,125.40
2019-02-20T22:26:27.318Z,120.83
2019-02-20T22:29:28.486Z,129.37
2019-02-20T22:32:43.116Z,118.70
2019-02-20T22:35:52.675Z,120.07
2019-02-20T22:39:15.498Z,120.63
2019-02-20T22:42:49.298Z,119.57
2019-02-20T22:46:17.115Z,128.60
2019-02-20T22:49:32.725Z,117.93
2019-02-20T22:52:37.777Z,134.00
2019-02-20T22:56:04.777Z,121.77
2019-02-20T22:59:27.616Z,131.90
2019-02-20T23:02:29.528Z,295.73
2019-02-20T23:05:43.098Z,172.03
2019-02-20T23:08:59.754Z,129.50
2019-02-20T23:11:50.839Z,129.83
2019-02-20T23:15:00.613Z,121.50
2019-02-20T23:17:44.531Z,125.33
2019-02-20T23:20:27.615Z,125.33
2019-02-20T23:23:10.296Z,114.60
2019-02-20T23:25:51.341Z,114.70
2019-02-20T23:28:34.813Z,121.17
2019-02-20T23:31:17.355Z,124.90
2019-02-20T23:34:00.648Z,123.77
2019-02-20T23:36:43.384Z,122.00
2019-02-20T23:39:23.670Z,120.57
2019-02-20T23:42:10.129Z,133.07
2019-02-20T23:44:53.118Z,123.50
2019-02-20T23:47:32.883Z,126.27
2019-02-20T23:50:15.227Z,124.77
2019-02-20T23:52:57.178Z,123.10
2019-02-20T23:55:42.889Z,144.37
2019-02-20T23:58:25.924Z,142.03
